createdAt,value
2022-10-23T00:00:22.266Z,76.68
2022-10-23T00:02:24.126Z,79.38
2022-10-23T00:04:26.049Z,84.30
2022-10-23T00:06:29.224Z,77.22
2022-10-23T00:08:31.031Z,73.90
2022-10-23T00:10:32.933Z,86.22
2022-10-23T00:12:34.790Z,77.68
2022-10-23T00:14:36.536Z,90.95
2022-10-23T00:16:38.411Z,76.97
2022-10-23T00:18:41.082Z,88.55
2022-10-23T00:20:42.790Z,100.93
2022-10-23T00:22:44.681Z,99.60
2022-10-23T00:24:46.635Z,89.13
2022-10-23T00:26:50.538Z,89.60
2022-10-23T00:28:54.123Z,89.32
2022-10-23T00:30:55.934Z,80.32
2022-10-23T00:32:57.619Z,82.32
2022-10-23T00:34:59.546Z,74.82
2022-10-23T00:37:01.375Z,85.28
2022-10-23T00:39:04.008Z,83.03
2022-10-23T00:41:07.339Z,79.53
2022-10-23T00:43:18.812Z,71.53
2022-10-23T00:45:25.356Z,76.85
2022-10-23T00:47:27.122Z,73.65
2022-10-23T00:49:28.922Z,76.53
2022-10-23T00:51:36.201Z,75.55
2022-10-23T00:53:38.547Z,79.20
2022-10-23T00:55:43.173Z,81.05
2022-10-23T00:57:47.335Z,70.32
2022-10-23T00:59:49.242Z,70.57
2022-10-23T01:01:51.269Z,69.35
2022-10-23T01:03:53.376Z,70.38
2022-10-23T01:06:13.199Z,67.05
2022-10-23T01:08:27.251Z,64.45
2022-10-23T01:13:06.118Z,70.90
2022-10-23T01:15:16.512Z,65.20
2022-10-23T01:17:44.566Z,60.95
2022-10-23T01:20:07.192Z,58.97
2022-10-23T01:22:17.965Z,69.95
2022-10-23T01:24:51.119Z,64.28
2022-10-23T01:27:10.215Z,63.85
2022-10-23T01:29:41.293Z,68.53
2022-10-23T01:31:45.671Z,70.85
2022-10-23T01:33:51.620Z,61.97
2022-10-23T01:36:02.740Z,68.70
2022-10-23T01:38:13.272Z,57.58
2022-10-23T01:40:28.047Z,63.67
2022-10-23T01:42:35.885Z,63.17
2022-10-23T01:44:49.366Z,59.42
2022-10-23T01:46:53.926Z,62.33
2022-10-23T01:48:58.772Z,62.42
2022-10-23T01:51:04.969Z,55.40
2022-10-23T01:53:06.919Z,56.58
2022-10-23T01:55:10.939Z,61.45
2022-10-23T01:57:17.716Z,52.08
2022-10-23T01:59:27.414Z,50.97
2022-10-23T02:01:31.833Z,59.75
2022-10-23T02:03:37.075Z,51.15
2022-10-23T02:05:39.397Z,63.80
2022-10-23T02:07:41.654Z,56.92
2022-10-23T02:09:43.652Z,54.85
2022-10-23T02:11:59.480Z,64.20
2022-10-23T02:14:20.776Z,56.97
2022-10-23T02:16:41.918Z,58.13
2022-10-23T02:19:08.936Z,65.70
2022-10-23T02:21:16.590Z,62.40
2022-10-23T02:23:56.853Z,57.65
2022-10-23T02:26:16.142Z,55.35
2022-10-23T02:28:23.483Z,59.08
2022-10-23T02:30:25.244Z,62.60
2022-10-23T02:32:29.097Z,55.25
2022-10-23T02:34:30.781Z,64.47
2022-10-23T02:36:32.883Z,48.65
2022-10-23T02:38:41.993Z,48.88
2022-10-23T02:40:45.792Z,48.78
2022-10-23T02:42:58.134Z,52.10
2022-10-23T02:45:24.344Z,45.72
2022-10-23T02:47:59.735Z,47.75
2022-10-23T02:50:01.480Z,47.22
2022-10-23T02:52:23.498Z,47.25
2022-10-23T02:54:58.446Z,48.33
2022-10-23T02:57:14.002Z,45.78
2022-10-23T02:59:27.121Z,58.92
2022-10-23T03:01:38.674Z,53.27
2022-10-23T03:03:54.069Z,51.20
2022-10-23T03:05:56.339Z,52.45
2022-10-23T03:07:58.439Z,52.60
2022-10-23T03:10:00.346Z,57.65
2022-10-23T03:12:02.215Z,49.67
2022-10-23T03:14:03.915Z,54.78
2022-10-23T03:16:05.781Z,50.15
2022-10-23T03:18:07.789Z,61.67
2022-10-23T03:20:10.240Z,56.42
2022-10-23T03:22:11.982Z,55.20
2022-10-23T03:24:13.895Z,50.63
2022-10-23T03:26:16.159Z,54.03
2022-10-23T03:28:18.114Z,57.53
2022-10-23T03:30:20.317Z,56.08
2022-10-23T03:32:22.059Z,51.97
2022-10-23T03:34:23.986Z,50.05
2022-10-23T03:36:26.154Z,50.47
2022-10-23T03:38:27.879Z,46.15
2022-10-23T03:40:29.830Z,49.90
2022-10-23T03:42:31.680Z,47.78
2022-10-23T03:44:33.528Z,51.17
2022-10-23T03:46:35.422Z,46.70
2022-10-23T03:48:37.408Z,44.80
2022-10-23T03:50:39.173Z,42.38
2022-10-23T03:52:41.337Z,42.55
2022-10-23T03:54:43.242Z,47.20
2022-10-23T03:56:44.974Z,47.17
2022-10-23T03:58:46.899Z,51.88
2022-10-23T04:00:48.731Z,46.30
2022-10-23T04:02:50.521Z,44.13
2022-10-23T04:04:52.426Z,40.97
2022-10-23T04:06:54.209Z,40.03
2022-10-23T04:08:56.068Z,49.22
2022-10-23T04:10:57.848Z,43.80
2022-10-23T04:12:59.735Z,38.42
2022-10-23T04:15:01.460Z,37.72
2022-10-23T04:17:03.446Z,42.85
2022-10-23T04:19:05.214Z,39.35
2022-10-23T04:21:06.911Z,50.78
2022-10-23T04:23:08.697Z,120.35
2022-10-23T04:25:10.657Z,100.32
2022-10-23T04:27:13.243Z,61.58
2022-10-23T04:29:15.213Z,50.78
2022-10-23T04:31:17.049Z,53.17
2022-10-23T04:33:19.159Z,44.78
2022-10-23T04:35:21.081Z,52.60
2022-10-23T04:37:23.000Z,47.58
2022-10-23T04:39:24.698Z,36.88
2022-10-23T04:41:26.673Z,46.58
2022-10-23T04:43:28.469Z,50.22
2022-10-23T04:45:30.179Z,45.67
2022-10-23T04:47:31.954Z,63.20
2022-10-23T04:49:33.764Z,75.15
2022-10-23T04:51:35.464Z,83.45
2022-10-23T04:53:37.458Z,89.63
2022-10-23T04:55:39.376Z,89.78
2022-10-23T04:57:41.520Z,98.30
2022-10-23T04:59:43.392Z,99.40
2022-10-23T05:01:45.348Z,97.85
2022-10-23T05:03:47.045Z,112.95
2022-10-23T05:05:48.811Z,102.60
2022-10-23T05:07:50.617Z,113.95
2022-10-23T05:09:52.314Z,108.72
2022-10-23T05:11:54.745Z,92.40
2022-10-23T05:13:56.505Z,68.28
2022-10-23T05:15:58.871Z,52.42
2022-10-23T05:18:05.929Z,53.05
2022-10-23T05:20:12.230Z,47.97
2022-10-23T05:22:14.637Z,51.38
2022-10-23T05:24:16.555Z,49.08
2022-10-23T05:26:18.404Z,48.08
2022-10-23T05:28:24.170Z,42.80
2022-10-23T05:30:26.053Z,57.67
2022-10-23T05:32:31.422Z,55.40
2022-10-23T05:34:36.740Z,51.83
2022-10-23T05:36:38.710Z,58.72
2022-10-23T05:38:41.683Z,56.83
2022-10-23T05:40:43.446Z,70.32
2022-10-23T05:42:45.485Z,51.88
2022-10-23T05:44:47.414Z,62.10
2022-10-23T05:46:49.094Z,55.97
2022-10-23T05:48:51.547Z,61.45
2022-10-23T05:50:53.603Z,56.97
2022-10-23T05:52:55.331Z,52.22
2022-10-23T05:54:57.149Z,55.65
2022-10-23T05:56:58.909Z,53.90
2022-10-23T05:59:00.688Z,77.30
2022-10-23T06:01:10.170Z,58.53
2022-10-23T06:03:11.996Z,55.85
2022-10-23T06:05:13.802Z,54.13
2022-10-23T06:07:15.758Z,54.67
2022-10-23T06:09:17.536Z,59.78
2022-10-23T06:11:19.434Z,53.85
2022-10-23T06:13:21.293Z,59.38
2022-10-23T06:15:23.167Z,60.88
2022-10-23T06:17:24.891Z,57.25
2022-10-23T06:19:26.890Z,74.25
2022-10-23T06:21:28.644Z,59.25
2022-10-23T06:23:32.430Z,54.22
2022-10-23T06:25:34.295Z,62.35
2022-10-23T06:27:36.071Z,52.90
2022-10-23T06:29:37.812Z,54.33
2022-10-23T06:31:39.711Z,57.78
2022-10-23T06:33:41.943Z,55.25
2022-10-23T06:35:43.745Z,58.33
2022-10-23T06:37:45.674Z,63.65
2022-10-23T06:39:47.449Z,56.53
2022-10-23T06:41:49.167Z,58.78
2022-10-23T06:43:51.746Z,61.05
2022-10-23T06:45:53.914Z,61.08
2022-10-23T06:47:55.845Z,59.60
2022-10-23T06:49:57.604Z,56.80
2022-10-23T06:51:59.404Z,57.22
2022-10-23T06:54:01.155Z,61.40
2022-10-23T06:56:05.021Z,56.10
2022-10-23T06:58:09.795Z,64.72
2022-10-23T07:00:12.525Z,67.13
2022-10-23T07:02:14.386Z,68.03
2022-10-23T07:04:16.251Z,54.58
2022-10-23T07:06:17.997Z,55.47
2022-10-23T07:08:19.882Z,50.50
2022-10-23T07:10:22.391Z,51.83
2022-10-23T07:12:24.222Z,49.60
2022-10-23T07:14:26.136Z,47.15
2022-10-23T07:16:28.072Z,47.10
2022-10-23T07:18:29.852Z,45.47
2022-10-23T07:20:31.741Z,46.38
2022-10-23T07:22:33.672Z,46.75
2022-10-23T07:24:35.408Z,46.45
2022-10-23T07:26:37.371Z,59.17
2022-10-23T07:28:39.298Z,48.53
2022-10-23T07:30:40.999Z,45.00
2022-10-23T07:32:42.896Z,41.33
2022-10-23T07:34:44.943Z,45.72
2022-10-23T07:36:46.633Z,48.72
2022-10-23T07:38:48.437Z,45.60
2022-10-23T07:40:50.693Z,44.85
2022-10-23T07:42:52.374Z,47.03
2022-10-23T07:44:54.203Z,46.10
2022-10-23T07:46:56.031Z,50.58
2022-10-23T07:48:57.723Z,47.35
2022-10-23T07:51:05.992Z,47.22
2022-10-23T07:53:08.007Z,51.95
2022-10-23T07:55:09.864Z,45.25
2022-10-23T07:57:11.670Z,58.25
2022-10-23T07:59:13.656Z,50.53
2022-10-23T08:01:19.208Z,52.75
2022-10-23T08:03:21.333Z,50.95
2022-10-23T08:05:23.245Z,55.83
2022-10-23T08:07:24.921Z,56.45
2022-10-23T08:09:26.901Z,50.65
2022-10-23T08:11:28.878Z,52.38
2022-10-23T08:13:30.586Z,58.85
2022-10-23T08:15:32.325Z,56.75
2022-10-23T08:17:34.124Z,54.33
2022-10-23T08:19:36.511Z,48.15
2022-10-23T08:21:38.678Z,53.58
2022-10-23T08:23:40.521Z,46.88
2022-10-23T08:25:42.299Z,50.72
2022-10-23T08:27:44.269Z,42.35
2022-10-23T08:29:46.366Z,44.38
2022-10-23T08:31:48.073Z,47.58
2022-10-23T08:35:56.649Z,46.22
2022-10-23T08:37:58.326Z,46.78
2022-10-23T08:40:02.361Z,50.30
2022-10-23T08:42:04.484Z,47.53
2022-10-23T08:44:13.472Z,49.05
2022-10-23T08:46:19.822Z,44.60
2022-10-23T08:48:25.441Z,48.45
2022-10-23T08:50:32.356Z,45.85
2022-10-23T08:52:44.375Z,44.42
2022-10-23T08:55:14.421Z,48.22
2022-10-23T08:57:18.050Z,48.33
2022-10-23T09:01:40.843Z,48.42
2022-10-23T09:06:00.097Z,51.33
2022-10-23T09:08:21.699Z,47.85
2022-10-23T09:10:34.492Z,48.92
2022-10-23T09:12:36.903Z,45.33
2022-10-23T09:15:29.926Z,49.30
2022-10-23T09:17:42.372Z,48.72
2022-10-23T09:19:46.335Z,60.20
2022-10-23T09:23:50.440Z,49.42
2022-10-23T09:25:53.728Z,49.13
2022-10-23T09:28:00.174Z,51.83
2022-10-23T09:30:07.101Z,45.78
2022-10-23T09:32:08.901Z,58.50
2022-10-23T09:34:20.810Z,45.50
2022-10-23T09:36:23.910Z,56.88
2022-10-23T09:38:34.874Z,49.83
2022-10-23T09:40:58.234Z,48.42
2022-10-23T09:43:13.908Z,45.83
2022-10-23T09:45:42.069Z,43.25
2022-10-23T09:47:44.170Z,46.58
2022-10-23T09:49:51.534Z,44.03
2022-10-23T09:52:19.732Z,41.17
2022-10-23T09:54:23.374Z,45.45
2022-10-23T09:59:03.305Z,43.53
2022-10-23T10:01:05.637Z,43.85
2022-10-23T10:03:23.204Z,45.20
2022-10-23T10:05:29.737Z,44.80
2022-10-23T10:07:33.529Z,50.88
2022-10-23T10:09:37.791Z,44.90
2022-10-23T10:11:57.360Z,48.97
2022-10-23T10:14:19.397Z,51.35
2022-10-23T10:16:33.405Z,46.10
2022-10-23T10:20:48.189Z,42.42
2022-10-23T10:23:21.947Z,51.38
2022-10-23T10:25:52.396Z,46.80
2022-10-23T10:28:13.494Z,48.58
2022-10-23T10:30:20.767Z,46.47
2022-10-23T10:32:42.049Z,43.97
2022-10-23T10:34:48.863Z,42.85
2022-10-23T10:36:57.786Z,44.38
2022-10-23T10:39:10.971Z,43.78
2022-10-23T10:41:42.841Z,46.63
2022-10-23T10:44:32.687Z,36.25
2022-10-23T10:47:03.396Z,34.90
2022-10-23T10:49:18.852Z,36.58
2022-10-23T10:51:26.506Z,32.72
2022-10-23T10:53:51.591Z,33.90
2022-10-23T10:55:59.596Z,37.92
2022-10-23T10:58:16.872Z,35.92
2022-10-23T11:00:21.446Z,30.70
2022-10-23T11:02:35.656Z,31.95
2022-10-23T11:05:10.091Z,34.97
2022-10-23T11:07:15.855Z,32.03
2022-10-23T11:09:21.482Z,31.10
2022-10-23T11:11:27.214Z,32.78
2022-10-23T11:13:40.607Z,36.45
2022-10-23T11:15:44.899Z,35.20
2022-10-23T11:17:55.116Z,35.85
2022-10-23T11:20:16.045Z,38.33
2022-10-23T11:22:37.937Z,33.65
2022-10-23T11:25:04.069Z,66.43
2022-10-23T11:27:20.856Z,38.90
2022-10-23T11:29:28.382Z,33.88
2022-10-23T11:31:44.514Z,38.50
2022-10-23T11:34:10.901Z,32.22
2022-10-23T11:36:20.802Z,46.92
2022-10-23T11:38:28.152Z,36.40
2022-10-23T11:40:30.100Z,39.63
2022-10-23T11:42:47.473Z,34.50
2022-10-23T11:44:50.372Z,28.70
2022-10-23T11:47:31.301Z,35.42
2022-10-23T11:49:34.568Z,30.70
2022-10-23T11:51:40.970Z,39.22
2022-10-23T11:53:42.673Z,28.15
2022-10-23T11:56:11.924Z,29.17
2022-10-23T11:58:23.718Z,29.05
2022-10-23T12:00:39.227Z,29.27
2022-10-23T12:02:43.339Z,38.30
2022-10-23T12:04:52.334Z,25.05
2022-10-23T12:07:00.805Z,27.05
2022-10-23T12:09:22.331Z,30.30
2022-10-23T12:11:41.119Z,28.30
2022-10-23T12:13:46.714Z,27.00
2022-10-23T12:15:56.061Z,28.48
2022-10-23T12:18:16.819Z,29.50
2022-10-23T12:20:25.771Z,25.98
2022-10-23T12:22:42.551Z,28.48
2022-10-23T12:25:33.985Z,26.85
2022-10-23T12:27:44.615Z,27.98
2022-10-23T12:30:14.485Z,24.67
2022-10-23T12:33:01.409Z,25.00
2022-10-23T12:35:44.665Z,25.88
2022-10-23T12:38:12.535Z,27.95
2022-10-23T12:40:14.284Z,23.50
2022-10-23T12:42:23.648Z,32.28
2022-10-23T12:44:26.486Z,24.08
2022-10-23T12:46:32.658Z,50.13
2022-10-23T12:48:34.537Z,23.33
2022-10-23T12:50:36.943Z,37.78
2022-10-23T12:52:38.663Z,29.63
2022-10-23T12:54:40.481Z,31.52
2022-10-23T12:56:42.430Z,36.17
2022-10-23T12:58:58.854Z,21.60
2022-10-23T13:01:03.575Z,21.48
2022-10-23T13:03:05.400Z,28.77
2022-10-23T13:05:09.205Z,40.92
2022-10-23T13:07:11.462Z,34.70
2022-10-23T13:09:27.643Z,25.00
2022-10-23T13:11:31.058Z,41.75
2022-10-23T13:13:32.922Z,147.95
2022-10-23T13:15:43.866Z,47.83
2022-10-23T13:18:06.636Z,34.47
2022-10-23T13:20:32.409Z,33.65
2022-10-23T13:22:36.559Z,28.33
2022-10-23T13:24:41.311Z,36.92
2022-10-23T13:26:43.061Z,30.95
2022-10-23T13:28:45.859Z,27.08
2022-10-23T13:31:02.688Z,29.23
2022-10-23T13:33:26.168Z,28.80
2022-10-23T13:35:27.867Z,26.27
2022-10-23T13:37:30.281Z,30.00
2022-10-23T13:39:34.048Z,37.95
2022-10-23T13:43:40.336Z,33.40
2022-10-23T13:45:42.081Z,38.07
2022-10-23T13:47:44.282Z,30.98
2022-10-23T13:49:46.304Z,47.75
2022-10-23T13:51:51.716Z,42.47
2022-10-23T13:53:54.701Z,33.17
2022-10-23T13:55:58.728Z,35.17
2022-10-23T13:58:00.763Z,40.30
2022-10-23T14:00:02.744Z,84.45
2022-10-23T14:02:18.539Z,42.88
2022-10-23T14:04:20.467Z,49.97
2022-10-23T14:06:22.242Z,43.13
2022-10-23T14:08:23.979Z,31.92
2022-10-23T14:10:27.697Z,50.97
2022-10-23T14:12:29.724Z,49.35
2022-10-23T14:14:31.447Z,40.40
2022-10-23T14:16:33.369Z,48.95
2022-10-23T14:18:35.287Z,90.43
2022-10-23T14:20:38.523Z,68.57
2022-10-23T14:22:40.279Z,77.40
2022-10-23T14:24:42.248Z,53.67
2022-10-23T14:26:44.041Z,45.40
2022-10-23T14:28:45.955Z,48.83
2022-10-23T14:30:47.835Z,44.42
2022-10-23T14:32:49.558Z,37.22
2022-10-23T14:34:53.576Z,37.70
2022-10-23T14:37:08.135Z,35.67
2022-10-23T14:39:10.765Z,33.20
2022-10-23T14:41:14.221Z,34.58
2022-10-23T14:43:16.249Z,36.03
2022-10-23T14:45:17.976Z,44.35
2022-10-23T14:47:19.978Z,37.42
2022-10-23T14:49:32.831Z,43.60
2022-10-23T14:51:39.711Z,92.63
2022-10-23T14:53:44.608Z,51.47
2022-10-23T14:55:46.740Z,97.95
2022-10-23T14:57:48.850Z,45.00
2022-10-23T14:59:50.677Z,52.30
2022-10-23T15:03:59.086Z,129.02
2022-10-23T15:06:00.774Z,158.20
2022-10-23T15:08:02.510Z,142.32
2022-10-23T15:10:05.414Z,173.55
2022-10-23T15:12:07.610Z,103.00
2022-10-23T15:14:09.621Z,73.40
2022-10-23T15:16:12.119Z,74.40
2022-10-23T15:18:13.834Z,67.63
2022-10-23T15:20:15.739Z,66.72
2022-10-23T15:22:17.748Z,49.97
2022-10-23T15:24:19.923Z,50.53
2022-10-23T15:26:21.947Z,48.83
2022-10-23T15:28:23.667Z,46.83
2022-10-23T15:30:25.757Z,46.83
2022-10-23T15:32:27.631Z,60.97
2022-10-23T15:34:30.144Z,61.65
2022-10-23T15:36:31.906Z,67.05
2022-10-23T15:38:33.621Z,83.32
2022-10-23T15:40:35.301Z,70.78
2022-10-23T15:42:37.036Z,58.88
2022-10-23T15:44:40.297Z,54.00
2022-10-23T15:46:42.496Z,53.03
2022-10-23T15:48:44.193Z,60.38
2022-10-23T15:50:45.879Z,79.43
2022-10-23T15:52:47.642Z,73.85
2022-10-23T15:54:49.336Z,100.72
2022-10-23T15:56:53.571Z,132.00
2022-10-23T15:58:55.429Z,95.93
2022-10-23T16:00:57.381Z,133.20
2022-10-23T16:02:59.458Z,133.60
2022-10-23T16:05:01.216Z,144.77
2022-10-23T16:07:02.936Z,132.35
2022-10-23T16:09:05.649Z,131.90
2022-10-23T16:11:15.486Z,150.95
2022-10-23T16:13:17.255Z,178.38
2022-10-23T16:15:19.431Z,241.65
2022-10-23T16:17:21.167Z,247.27
2022-10-23T16:19:22.886Z,256.55
2022-10-23T16:21:27.691Z,450.90
2022-10-23T16:23:29.471Z,213.77
2022-10-23T16:27:37.859Z,162.30
2022-10-23T16:29:39.586Z,176.40
2022-10-23T16:31:41.339Z,163.65
2022-10-23T16:33:43.273Z,295.17
2022-10-23T16:35:45.110Z,229.57
2022-10-23T16:37:47.038Z,385.95
2022-10-23T16:39:49.023Z,336.23
2022-10-23T16:41:50.799Z,310.95
2022-10-23T16:43:52.507Z,333.90
2022-10-23T16:46:08.436Z,255.88
2022-10-23T16:48:10.157Z,360.60
2022-10-23T16:50:11.856Z,336.42
2022-10-23T16:52:13.547Z,384.55
2022-10-23T16:54:15.280Z,303.65
2022-10-23T16:56:21.325Z,286.58
2022-10-23T16:58:24.225Z,310.70
2022-10-23T17:00:26.261Z,428.92
2022-10-23T17:02:28.071Z,398.63
2022-10-23T17:04:30.214Z,413.13
2022-10-23T17:06:33.029Z,460.05
2022-10-23T17:08:34.975Z,373.03
2022-10-23T17:10:37.042Z,502.38
2022-10-23T17:12:38.764Z,432.27
2022-10-23T17:14:40.509Z,422.85
2022-10-23T17:16:45.570Z,455.50
2022-10-23T17:18:47.407Z,482.98
2022-10-23T17:20:57.034Z,531.35
2022-10-23T17:22:58.883Z,560.75
2022-10-23T17:25:00.609Z,516.60
2022-10-23T17:27:02.308Z,672.55
2022-10-23T17:29:06.472Z,536.20
2022-10-23T17:31:22.259Z,532.70
2022-10-23T17:33:24.010Z,493.65
2022-10-23T17:35:25.957Z,465.90
2022-10-23T17:37:27.666Z,409.05
2022-10-23T17:39:30.135Z,384.42
2022-10-23T17:41:32.179Z,395.98
2022-10-23T17:43:34.562Z,286.92
2022-10-23T17:45:36.320Z,336.63
2022-10-23T17:47:38.340Z,332.58
2022-10-23T17:49:42.784Z,338.67
2022-10-23T17:51:51.870Z,420.40
2022-10-23T17:53:55.735Z,452.10
2022-10-23T17:55:57.857Z,266.33
2022-10-23T17:57:59.578Z,524.67
2022-10-23T18:00:01.439Z,452.02
2022-10-23T18:02:03.282Z,450.08
2022-10-23T18:04:07.226Z,690.05
2022-10-23T18:06:15.688Z,389.48
2022-10-23T18:08:17.418Z,448.70
2022-10-23T18:10:19.628Z,687.53
2022-10-23T18:12:22.052Z,683.60
2022-10-23T18:14:26.112Z,537.30
2022-10-23T18:16:30.304Z,509.60
2022-10-23T18:18:32.656Z,484.65
2022-10-23T18:20:39.658Z,1027.15
2022-10-23T18:22:41.548Z,592.38
2022-10-23T18:24:43.678Z,642.75
2022-10-23T18:26:45.746Z,722.13
2022-10-23T18:28:49.100Z,651.60
2022-10-23T18:30:53.366Z,532.13
2022-10-23T18:32:57.813Z,313.77
2022-10-23T18:34:59.673Z,249.40
2022-10-23T18:37:01.835Z,350.10
2022-10-23T18:39:05.333Z,235.27
2022-10-23T18:41:07.173Z,282.65
2022-10-23T18:43:14.827Z,257.65
2022-10-23T18:45:17.102Z,285.38
2022-10-23T18:47:18.841Z,563.65
2022-10-23T18:49:20.767Z,315.65
2022-10-23T18:51:34.102Z,330.35
2022-10-23T18:53:35.827Z,391.77
2022-10-23T18:55:44.374Z,356.08
2022-10-23T18:57:46.471Z,331.88
2022-10-23T18:59:48.440Z,345.17
2022-10-23T19:01:50.367Z,359.65
2022-10-23T19:03:52.874Z,508.52
2022-10-23T19:05:54.643Z,271.23
2022-10-23T19:07:56.505Z,240.00
2022-10-23T19:09:58.722Z,230.23
2022-10-23T19:12:00.531Z,238.07
2022-10-23T19:14:02.461Z,243.50
2022-10-23T19:16:06.946Z,203.05
2022-10-23T19:18:09.466Z,196.85
2022-10-23T19:20:14.664Z,206.45
2022-10-23T19:22:18.064Z,259.73
2022-10-23T19:24:25.602Z,224.05
2022-10-23T19:26:29.736Z,222.32
2022-10-23T19:28:35.371Z,445.60
2022-10-23T19:30:40.121Z,353.83
2022-10-23T19:32:42.736Z,279.08
2022-10-23T19:34:44.831Z,303.47
2022-10-23T19:36:47.943Z,246.73
2022-10-23T19:38:49.752Z,251.52
2022-10-23T19:40:51.495Z,255.35
2022-10-23T19:42:53.177Z,244.50
2022-10-23T19:44:55.062Z,232.38
2022-10-23T19:46:56.752Z,242.02
2022-10-23T19:48:58.470Z,244.18
2022-10-23T19:51:00.462Z,248.57
2022-10-23T19:53:02.232Z,203.10
2022-10-23T19:55:05.138Z,205.73
2022-10-23T19:57:07.254Z,277.73
2022-10-23T19:59:10.812Z,207.80
2022-10-23T20:01:16.565Z,225.48
2022-10-23T20:03:18.389Z,176.70
2022-10-23T20:05:20.856Z,210.02
2022-10-23T20:07:22.587Z,201.55
2022-10-23T20:09:24.586Z,262.40
2022-10-23T20:11:30.102Z,230.32
2022-10-23T20:13:32.065Z,220.85
2022-10-23T20:15:36.901Z,237.18
2022-10-23T20:17:38.623Z,178.48
2022-10-23T20:19:40.334Z,156.43
2022-10-23T20:21:43.978Z,170.25
2022-10-23T20:25:47.655Z,121.38
2022-10-23T20:27:49.334Z,137.77
2022-10-23T20:29:51.162Z,134.52
2022-10-23T20:31:56.923Z,128.13
2022-10-23T20:33:58.698Z,126.07
2022-10-23T20:36:00.416Z,113.05
2022-10-23T20:38:02.140Z,131.52
2022-10-23T20:40:04.205Z,116.88
2022-10-23T20:42:06.295Z,119.30
2022-10-23T20:44:11.031Z,146.25
2022-10-23T20:46:13.095Z,174.13
2022-10-23T20:48:14.820Z,177.88
2022-10-23T20:50:16.580Z,202.73
2022-10-23T20:52:18.402Z,183.10
2022-10-23T20:54:20.084Z,171.73
2022-10-23T20:56:23.392Z,168.68
2022-10-23T20:58:25.343Z,129.13
2022-10-23T21:00:27.018Z,147.02
2022-10-23T21:02:29.042Z,144.35
2022-10-23T21:04:31.080Z,163.23
2022-10-23T21:06:45.816Z,157.77
2022-10-23T21:09:00.104Z,207.80
2022-10-23T21:11:01.825Z,243.35
2022-10-23T21:13:03.523Z,122.50
2022-10-23T21:15:05.772Z,128.90
2022-10-23T21:17:07.672Z,126.35
2022-10-23T21:19:12.729Z,125.93
2022-10-23T21:21:20.231Z,147.48
2022-10-23T21:23:22.296Z,114.60
2022-10-23T21:25:24.012Z,138.85
2022-10-23T21:27:25.740Z,107.07
2022-10-23T21:29:27.733Z,112.05
2022-10-23T21:31:29.525Z,108.85
2022-10-23T21:33:31.868Z,110.68
2022-10-23T21:35:33.782Z,126.22
2022-10-23T21:37:35.520Z,85.93
2022-10-23T21:39:37.247Z,126.05
2022-10-23T21:41:39.350Z,112.97
2022-10-23T21:43:41.554Z,122.70
2022-10-23T21:45:43.268Z,106.45
2022-10-23T21:47:45.463Z,105.38
2022-10-23T21:49:47.287Z,109.18
2022-10-23T21:51:49.011Z,101.40
2022-10-23T21:53:52.955Z,110.18
2022-10-23T21:55:56.302Z,85.43
2022-10-23T21:57:57.995Z,122.47
2022-10-23T22:00:00.241Z,86.97
2022-10-23T22:02:02.007Z,109.95
2022-10-23T22:04:03.783Z,141.07
2022-10-23T22:06:05.967Z,98.95
2022-10-23T22:08:07.645Z,112.45
2022-10-23T22:10:09.391Z,89.85
2022-10-23T22:12:12.057Z,92.65
2022-10-23T22:14:13.887Z,83.35
2022-10-23T22:16:17.305Z,76.90
2022-10-23T22:18:19.137Z,150.70
2022-10-23T22:20:21.021Z,80.07
2022-10-23T22:22:22.773Z,194.00
2022-10-23T22:24:25.144Z,103.60
2022-10-23T22:26:38.791Z,103.75
2022-10-23T22:28:40.565Z,90.78
2022-10-23T22:30:42.406Z,96.13
2022-10-23T22:32:48.364Z,90.22
2022-10-23T22:34:52.981Z,82.35
2022-10-23T22:36:56.116Z,83.85
2022-10-23T22:38:57.917Z,99.32
2022-10-23T22:41:04.217Z,106.28
2022-10-23T22:43:06.637Z,131.52
2022-10-23T22:45:09.131Z,134.18
2022-10-23T22:47:10.906Z,177.85
2022-10-23T22:49:13.175Z,129.02
2022-10-23T22:51:17.511Z,112.30
2022-10-23T22:53:19.210Z,133.27
2022-10-23T22:55:21.165Z,102.45
2022-10-23T22:57:22.979Z,147.40
2022-10-23T22:59:24.733Z,112.25
2022-10-23T23:01:36.606Z,100.95
2022-10-23T23:03:38.869Z,137.15
2022-10-23T23:05:47.971Z,111.13
2022-10-23T23:07:50.025Z,125.45
2022-10-23T23:09:51.745Z,116.28
2022-10-23T23:11:53.437Z,128.93
2022-10-23T23:13:55.256Z,128.43
2022-10-23T23:15:57.560Z,134.50
2022-10-23T23:17:59.438Z,105.95
2022-10-23T23:20:01.404Z,95.38
2022-10-23T23:22:04.165Z,98.63
2022-10-23T23:24:05.924Z,87.83
2022-10-23T23:26:08.766Z,88.82
2022-10-23T23:28:18.654Z,89.37
2022-10-23T23:30:20.880Z,77.88
2022-10-23T23:32:22.855Z,104.70
2022-10-23T23:34:24.614Z,80.68
2022-10-23T23:36:27.811Z,65.50
2022-10-23T23:38:29.889Z,97.25
2022-10-23T23:40:31.653Z,65.20
2022-10-23T23:42:33.383Z,72.55
2022-10-23T23:44:41.946Z,62.63
2022-10-23T23:46:52.647Z,72.47
2022-10-23T23:48:54.334Z,77.40
2022-10-23T23:50:56.139Z,82.53
2022-10-23T23:52:57.847Z,85.20
2022-10-23T23:55:00.390Z,63.08
2022-10-23T23:57:02.422Z,126.18
2022-10-23T23:59:04.135Z,58.08
